createdAt,value
2016-07-05T00:00:27.778Z,0
2016-07-05T00:01:28.036Z,0
2016-07-05T00:02:27.822Z,0
2016-07-05T00:03:27.815Z,0
2016-07-05T00:04:28.181Z,0
2016-07-05T00:05:27.831Z,0
2016-07-05T00:06:27.816Z,0
2016-07-05T00:07:28.199Z,0
2016-07-05T00:08:27.868Z,0
2016-07-05T00:09:27.862Z,0
2016-07-05T00:10:27.865Z,0
2016-07-05T00:11:27.888Z,0
2016-07-05T00:12:27.869Z,0
2016-07-05T00:13:27.897Z,0
2016-07-05T00:14:28.102Z,0
2016-07-05T00:15:27.848Z,0
2016-07-05T00:16:27.869Z,0
2016-07-05T00:17:27.835Z,0
2016-07-05T00:18:27.848Z,0
2016-07-05T00:19:27.931Z,0
2016-07-05T00:20:27.838Z,0
2016-07-05T00:21:27.859Z,0
2016-07-05T00:22:28.071Z,0
2016-07-05T00:23:27.833Z,0
2016-07-05T00:24:27.836Z,0
2016-07-05T00:25:27.838Z,0
2016-07-05T00:26:27.830Z,0
2016-07-05T00:27:27.832Z,0
2016-07-05T00:28:27.891Z,0
2016-07-05T00:29:27.971Z,0
2016-07-05T00:30:27.920Z,0
2016-07-05T00:31:28.054Z,0
2016-07-05T00:32:27.879Z,0
2016-07-05T00:33:27.845Z,0
2016-07-05T00:34:27.893Z,0
2016-07-05T00:35:27.839Z,0
2016-07-05T00:36:27.867Z,0
2016-07-05T00:37:28.140Z,0
2016-07-05T00:38:27.848Z,0
2016-07-05T00:39:27.851Z,0
2016-07-05T00:40:27.874Z,0
2016-07-05T00:41:27.819Z,0
2016-07-05T00:42:27.874Z,0
2016-07-05T00:43:27.810Z,0
2016-07-05T00:44:28.003Z,0
2016-07-05T00:45:27.838Z,0
2016-07-05T00:46:28.284Z,0
2016-07-05T00:47:27.836Z,0
2016-07-05T00:48:27.844Z,0
2016-07-05T00:49:27.840Z,0
2016-07-05T00:50:27.840Z,0
2016-07-05T00:51:27.886Z,0
2016-07-05T00:52:27.839Z,0
2016-07-05T00:53:27.842Z,0
2016-07-05T00:54:27.840Z,0
2016-07-05T00:55:27.858Z,0
2016-07-05T00:56:27.882Z,0
2016-07-05T00:57:27.875Z,0
2016-07-05T00:58:27.870Z,0
2016-07-05T00:59:27.960Z,0
2016-07-05T01:00:27.880Z,0
2016-07-05T01:01:27.869Z,0
2016-07-05T01:02:27.832Z,0
2016-07-05T01:03:27.834Z,0
2016-07-05T01:04:27.841Z,0
2016-07-05T01:05:27.869Z,0
2016-07-05T01:06:27.857Z,0
2016-07-05T01:07:28.175Z,0
2016-07-05T01:08:27.842Z,0
2016-07-05T01:09:27.847Z,0
2016-07-05T01:10:28.051Z,0
2016-07-05T01:11:27.850Z,0
2016-07-05T01:12:27.888Z,0
2016-07-05T01:13:28.134Z,0
2016-07-05T01:14:27.946Z,0
2016-07-05T01:15:27.825Z,0
2016-07-05T01:16:27.902Z,0
2016-07-05T01:17:27.893Z,0
2016-07-05T01:18:27.894Z,0
2016-07-05T01:19:28.033Z,0
2016-07-05T01:20:27.888Z,0
2016-07-05T01:21:27.866Z,0
2016-07-05T01:22:27.961Z,0
2016-07-05T01:23:27.868Z,0
2016-07-05T01:24:27.854Z,0
2016-07-05T01:25:28.078Z,0
2016-07-05T01:26:27.839Z,0
2016-07-05T01:27:27.858Z,0
2016-07-05T01:28:27.851Z,0
2016-07-05T01:29:28.116Z,0
2016-07-05T01:30:27.865Z,0
2016-07-05T01:31:27.868Z,0
2016-07-05T01:32:27.872Z,0
2016-07-05T01:33:27.892Z,0
2016-07-05T01:34:27.948Z,0
2016-07-05T01:35:27.951Z,0
2016-07-05T01:36:28.620Z,0
2016-07-05T01:37:27.902Z,0
2016-07-05T01:38:27.901Z,0
2016-07-05T01:39:27.880Z,0
2016-07-05T01:40:27.930Z,0
2016-07-05T01:41:27.881Z,0
2016-07-05T01:42:27.871Z,0
2016-07-05T01:43:27.950Z,0
2016-07-05T01:44:27.960Z,0
2016-07-05T01:45:27.889Z,0
2016-07-05T01:46:27.955Z,0
2016-07-05T01:47:27.931Z,0
2016-07-05T01:48:27.900Z,0
2016-07-05T01:49:27.932Z,0
2016-07-05T01:50:27.939Z,0
2016-07-05T01:51:27.898Z,0
2016-07-05T01:52:27.903Z,0
2016-07-05T01:53:27.895Z,0
2016-07-05T01:54:27.892Z,0
2016-07-05T01:55:27.898Z,0
2016-07-05T01:56:27.898Z,0
2016-07-05T01:57:27.912Z,0
2016-07-05T01:58:27.905Z,0
2016-07-05T01:59:28.055Z,0
2016-07-05T02:00:27.933Z,0
2016-07-05T02:01:27.956Z,0
2016-07-05T02:02:28.246Z,0
2016-07-05T02:03:28.268Z,0
2016-07-05T02:04:28.289Z,0
2016-07-05T02:05:28.318Z,0
2016-07-05T02:06:28.209Z,0
2016-07-05T02:07:28.229Z,0
2016-07-05T02:08:28.353Z,0
2016-07-05T02:09:27.897Z,0
2016-07-05T02:10:27.930Z,0
2016-07-05T02:11:28.262Z,0
2016-07-05T02:12:27.895Z,0
2016-07-05T02:13:27.931Z,0
2016-07-05T02:14:28.044Z,0
2016-07-05T02:15:27.900Z,0
2016-07-05T02:16:27.900Z,0
2016-07-05T02:17:27.955Z,0
2016-07-05T02:18:27.932Z,0
2016-07-05T02:19:27.960Z,0
2016-07-05T02:20:27.930Z,0
2016-07-05T02:21:27.938Z,0
2016-07-05T02:22:27.991Z,0
2016-07-05T02:23:27.909Z,0
2016-07-05T02:24:28.020Z,0
2016-07-05T02:25:27.998Z,0
2016-07-05T02:26:27.966Z,0
2016-07-05T02:27:27.965Z,0
2016-07-05T02:28:27.956Z,0
2016-07-05T02:29:28.098Z,0
2016-07-05T02:30:27.909Z,0
2016-07-05T02:31:27.897Z,4
2016-07-05T02:32:27.930Z,4
2016-07-05T02:33:27.919Z,4
2016-07-05T02:34:27.957Z,4
2016-07-05T02:35:27.932Z,4
2016-07-05T02:36:27.937Z,0
2016-07-05T02:37:27.928Z,4
2016-07-05T02:38:27.932Z,4
2016-07-05T02:39:27.924Z,4
2016-07-05T02:40:27.925Z,4
2016-07-05T02:41:27.932Z,4
2016-07-05T02:42:27.942Z,4
2016-07-05T02:43:27.963Z,8
2016-07-05T02:44:28.210Z,8
2016-07-05T02:45:27.929Z,4
2016-07-05T02:46:27.939Z,8
2016-07-05T02:47:27.944Z,8
2016-07-05T02:48:27.950Z,8
2016-07-05T02:49:27.934Z,12
2016-07-05T02:50:27.932Z,12
2016-07-05T02:51:27.978Z,8
2016-07-05T02:52:27.948Z,12
2016-07-05T02:53:27.935Z,12
2016-07-05T02:54:27.956Z,16
2016-07-05T02:55:27.969Z,16
2016-07-05T02:56:27.940Z,16
2016-07-05T02:57:27.937Z,20
2016-07-05T02:58:27.926Z,16
2016-07-05T02:59:28.495Z,20
2016-07-05T03:00:27.893Z,20
2016-07-05T03:01:27.955Z,24
2016-07-05T03:02:27.921Z,28
2016-07-05T03:03:27.941Z,28
2016-07-05T03:04:27.966Z,24
2016-07-05T03:05:27.999Z,24
2016-07-05T03:06:27.938Z,28
2016-07-05T03:07:27.965Z,32
2016-07-05T03:08:27.964Z,32
2016-07-05T03:09:27.966Z,36
2016-07-05T03:10:27.965Z,40
2016-07-05T03:11:27.967Z,48
2016-07-05T03:12:27.972Z,52
2016-07-05T03:13:27.994Z,56
2016-07-05T03:14:28.024Z,64
2016-07-05T03:15:27.967Z,68
2016-07-05T03:16:28.019Z,72
2016-07-05T03:17:27.996Z,76
2016-07-05T03:18:27.995Z,80
2016-07-05T03:19:28.028Z,88
2016-07-05T03:20:28.012Z,96
2016-07-05T03:21:28.026Z,104
2016-07-05T03:22:27.990Z,108
2016-07-05T03:23:27.965Z,116
2016-07-05T03:24:28.011Z,128
2016-07-05T03:25:28.146Z,140
2016-07-05T03:26:27.997Z,152
2016-07-05T03:27:27.994Z,164
2016-07-05T03:28:28.006Z,180
2016-07-05T03:29:27.989Z,196
2016-07-05T03:30:27.996Z,212
2016-07-05T03:31:27.996Z,228
2016-07-05T03:32:28.023Z,248
2016-07-05T03:33:27.984Z,272
2016-07-05T03:34:27.994Z,292
2016-07-05T03:35:27.966Z,308
2016-07-05T03:36:27.979Z,324
2016-07-05T03:37:27.996Z,336
2016-07-05T03:38:28.043Z,352
2016-07-05T03:39:27.995Z,372
2016-07-05T03:40:28.001Z,392
2016-07-05T03:41:27.978Z,412
2016-07-05T03:42:27.972Z,452
2016-07-05T03:43:27.998Z,500
2016-07-05T03:44:28.880Z,556
2016-07-05T03:45:27.967Z,592
2016-07-05T03:46:27.998Z,612
2016-07-05T03:47:27.961Z,652
2016-07-05T03:48:28.023Z,680
2016-07-05T03:49:27.996Z,704
2016-07-05T03:50:28.007Z,720
2016-07-05T03:51:27.992Z,736
2016-07-05T03:52:28.000Z,768
2016-07-05T03:53:28.019Z,804
2016-07-05T03:54:28.033Z,852
2016-07-05T03:55:28.459Z,908
2016-07-05T03:56:28.008Z,976
2016-07-05T03:57:28.031Z,1044
2016-07-05T03:58:27.968Z,1108
2016-07-05T03:59:28.058Z,1168
2016-07-05T04:00:28.031Z,1264
2016-07-05T04:01:28.297Z,1372
2016-07-05T04:02:28.030Z,1472
2016-07-05T04:03:28.005Z,1540
2016-07-05T04:04:28.031Z,1640
2016-07-05T04:05:28.058Z,1772
2016-07-05T04:06:28.059Z,1892
2016-07-05T04:07:28.038Z,1956
2016-07-05T04:08:28.058Z,2004
2016-07-05T04:09:28.044Z,2024
2016-07-05T04:10:28.034Z,2080
2016-07-05T04:11:28.001Z,2128
2016-07-05T04:12:28.031Z,2160
2016-07-05T04:13:28.030Z,2236
2016-07-05T04:14:28.030Z,2348
2016-07-05T04:15:28.023Z,2448
2016-07-05T04:16:28.044Z,2544
2016-07-05T04:17:27.999Z,2636
2016-07-05T04:18:28.033Z,2716
2016-07-05T04:19:28.028Z,2780
2016-07-05T04:20:28.005Z,2860
2016-07-05T04:21:27.999Z,2992
2016-07-05T04:22:28.038Z,3076
2016-07-05T04:23:28.043Z,3120
2016-07-05T04:24:28.076Z,3196
2016-07-05T04:25:28.093Z,3284
2016-07-05T04:26:28.066Z,3376
2016-07-05T04:27:28.059Z,3420
2016-07-05T04:28:28.048Z,3424
2016-07-05T04:29:28.063Z,3472
2016-07-05T04:30:28.034Z,3548
2016-07-05T04:31:28.071Z,3656
2016-07-05T04:32:28.035Z,3772
2016-07-05T04:33:28.031Z,3792
2016-07-05T04:34:28.094Z,3864
2016-07-05T04:35:28.057Z,3976
2016-07-05T04:36:28.089Z,4044
2016-07-05T04:37:28.063Z,4104
2016-07-05T04:38:28.038Z,4152
2016-07-05T04:39:28.038Z,4124
2016-07-05T04:40:28.027Z,4124
2016-07-05T04:41:28.031Z,4120
2016-07-05T04:42:28.032Z,4192
2016-07-05T04:43:28.120Z,4284
2016-07-05T04:44:28.054Z,4444
2016-07-05T04:45:28.032Z,4624
2016-07-05T04:46:28.067Z,4748
2016-07-05T04:47:28.063Z,4824
2016-07-05T04:48:28.639Z,4896
2016-07-05T04:49:28.092Z,4908
2016-07-05T04:50:28.035Z,4820
2016-07-05T04:51:28.064Z,4764
2016-07-05T04:52:28.058Z,4760
2016-07-05T04:53:28.031Z,4824
2016-07-05T04:54:28.036Z,4924
2016-07-05T04:55:28.060Z,4960
2016-07-05T04:56:28.063Z,4944
2016-07-05T04:57:28.065Z,4868
2016-07-05T04:58:28.079Z,4884
2016-07-05T04:59:28.093Z,5160
2016-07-05T05:00:28.050Z,6280
2016-07-05T05:01:28.094Z,7604
2016-07-05T05:02:28.105Z,8104
2016-07-05T05:03:28.060Z,7904
2016-07-05T05:04:28.065Z,7548
2016-07-05T05:05:28.103Z,7072
2016-07-05T05:06:28.156Z,6640
2016-07-05T05:07:28.089Z,6420
2016-07-05T05:08:28.049Z,5804
2016-07-05T05:09:28.056Z,5504
2016-07-05T05:10:28.125Z,5484
2016-07-05T05:11:28.056Z,5564
2016-07-05T05:12:28.397Z,5624
2016-07-05T05:13:28.100Z,5732
2016-07-05T05:14:28.092Z,5928
2016-07-05T05:15:28.092Z,6096
2016-07-05T05:16:28.131Z,6344
2016-07-05T05:17:28.129Z,6828
2016-07-05T05:18:28.115Z,7356
2016-07-05T05:19:28.835Z,7644
2016-07-05T05:20:28.152Z,7752
2016-07-05T05:21:28.066Z,7980
2016-07-05T05:22:28.062Z,8112
2016-07-05T05:23:28.055Z,8264
2016-07-05T05:24:28.093Z,8032
2016-07-05T05:25:28.120Z,7776
2016-07-05T05:26:28.206Z,7684
2016-07-05T05:27:28.122Z,7568
2016-07-05T05:28:28.163Z,7476
2016-07-05T05:29:28.182Z,7196
2016-07-05T05:30:28.903Z,6844
2016-07-05T05:31:28.121Z,6296
2016-07-05T05:32:28.209Z,5824
2016-07-05T05:33:28.228Z,5640
2016-07-05T05:34:28.215Z,5684
2016-07-05T05:35:28.234Z,5968
2016-07-05T05:36:29.082Z,6324
2016-07-05T05:37:28.335Z,6396
2016-07-05T05:38:28.185Z,6824
2016-07-05T05:39:28.061Z,7192
2016-07-05T05:40:28.151Z,7108
2016-07-05T05:41:28.241Z,7464
2016-07-05T05:42:28.112Z,7972
2016-07-05T05:43:28.107Z,7956
2016-07-05T05:44:28.145Z,7940
2016-07-05T05:45:28.119Z,8012
2016-07-05T05:46:28.088Z,8164
2016-07-05T05:47:28.094Z,8324
2016-07-05T05:48:28.051Z,8500
2016-07-05T05:49:28.061Z,8716
2016-07-05T05:50:28.127Z,8816
2016-07-05T05:51:28.075Z,8824
2016-07-05T05:52:28.092Z,8960
2016-07-05T05:53:28.130Z,8972
2016-07-05T05:54:28.127Z,9060
2016-07-05T05:55:28.819Z,9372
2016-07-05T05:56:28.128Z,9500
2016-07-05T05:57:28.089Z,9536
2016-07-05T05:58:28.109Z,9528
2016-07-05T05:59:28.191Z,9472
2016-07-05T06:00:28.144Z,9704
2016-07-05T06:01:28.097Z,9608
2016-07-05T06:02:28.128Z,9576
2016-07-05T06:03:28.131Z,9596
2016-07-05T06:04:28.168Z,9556
2016-07-05T06:05:28.146Z,9696
2016-07-05T06:06:28.188Z,9940
2016-07-05T06:07:28.217Z,10016
2016-07-05T06:08:28.759Z,10156
2016-07-05T06:09:28.265Z,10404
2016-07-05T06:10:28.175Z,10740
2016-07-05T06:11:28.135Z,10608
2016-07-05T06:12:28.157Z,10972
2016-07-05T06:13:28.219Z,11060
2016-07-05T06:14:28.133Z,11300
2016-07-05T06:15:28.227Z,11320
2016-07-05T06:16:28.306Z,11908
2016-07-05T06:17:28.173Z,12416
2016-07-05T06:18:28.332Z,12668
2016-07-05T06:19:28.191Z,12556
2016-07-05T06:20:28.250Z,12480
2016-07-05T06:21:28.112Z,13152
2016-07-05T06:22:28.281Z,15816
2016-07-05T06:23:28.203Z,20928
2016-07-05T06:24:28.307Z,25248
2016-07-05T06:25:28.852Z,29792
2016-07-05T06:26:28.123Z,31840
2016-07-05T06:27:28.191Z,33120
2016-07-05T06:28:28.142Z,38848
2016-07-05T06:29:28.144Z,46880
2016-07-05T06:30:28.155Z,46208
2016-07-05T06:31:28.265Z,39008
2016-07-05T06:32:28.440Z,44704
2016-07-05T06:33:28.156Z,50752
2016-07-05T06:34:28.162Z,51584
2016-07-05T06:35:28.152Z,46464
2016-07-05T06:36:28.255Z,18384
2016-07-05T06:37:28.169Z,50080
2016-07-05T06:38:28.832Z,52480
2016-07-05T06:39:28.123Z,52736
2016-07-05T06:40:28.217Z,54368
2016-07-05T06:41:28.161Z,54112
2016-07-05T06:42:28.213Z,55424
2016-07-05T06:43:28.155Z,53920
2016-07-05T06:44:28.221Z,52928
2016-07-05T06:45:28.250Z,54432
2016-07-05T06:46:28.221Z,51648
2016-07-05T06:47:28.483Z,56480
2016-07-05T06:48:28.254Z,50496
2016-07-05T06:49:28.153Z,52000
2016-07-05T06:50:28.239Z,50624
2016-07-05T06:51:28.300Z,56160
2016-07-05T06:52:28.360Z,55712
2016-07-05T06:53:28.253Z,55872
2016-07-05T06:54:28.190Z,57568
2016-07-05T06:55:28.285Z,58944
2016-07-05T06:56:28.164Z,54784
2016-07-05T06:57:28.270Z,56384
2016-07-05T06:58:28.360Z,58208
2016-07-05T06:59:28.244Z,56576
2016-07-05T07:00:28.251Z,57376
2016-07-05T07:01:28.878Z,54976
2016-07-05T07:02:28.173Z,56000
2016-07-05T07:03:28.313Z,58464
2016-07-05T07:04:28.147Z,61024
2016-07-05T07:05:28.191Z,58336
2016-07-05T07:06:29.205Z,58624
2016-07-05T07:07:28.258Z,58208
2016-07-05T07:08:28.190Z,59936
2016-07-05T07:09:28.210Z,62816
2016-07-05T07:10:28.121Z,65376
2016-07-05T07:11:28.483Z,63616
2016-07-05T07:12:28.165Z,60704
2016-07-05T07:13:28.219Z,58016
2016-07-05T07:14:28.258Z,58368
2016-07-05T07:15:28.223Z,62176
2016-07-05T07:16:28.213Z,64640
2016-07-05T07:17:28.214Z,69088
2016-07-05T07:18:28.296Z,66560
2016-07-05T07:19:28.215Z,62816
2016-07-05T07:20:28.202Z,64608
2016-07-05T07:21:28.221Z,64416
2016-07-05T07:22:28.200Z,63936
2016-07-05T07:23:28.328Z,67232
2016-07-05T07:24:28.199Z,70112
2016-07-05T07:25:28.215Z,67680
2016-07-05T07:26:28.208Z,46048
2016-07-05T07:27:28.213Z,32992
2016-07-05T07:28:28.240Z,42816
2016-07-05T07:29:28.248Z,33088
2016-07-05T07:30:28.247Z,27872
2016-07-05T07:31:28.203Z,48960
2016-07-05T07:32:28.209Z,46400
2016-07-05T07:33:28.260Z,65184
2016-07-05T07:34:28.273Z,67936
2016-07-05T07:35:28.224Z,70304
2016-07-05T07:36:28.241Z,70816
2016-07-05T07:37:28.234Z,71328
2016-07-05T07:38:28.256Z,77920
2016-07-05T07:39:28.791Z,63168
2016-07-05T07:40:28.284Z,21440
2016-07-05T07:41:28.456Z,16072
2016-07-05T07:42:28.433Z,15060
2016-07-05T07:43:28.337Z,14604
2016-07-05T07:44:28.222Z,14212
2016-07-05T07:45:28.293Z,13988
2016-07-05T07:46:28.255Z,13800
2016-07-05T07:47:28.251Z,13376
2016-07-05T07:48:28.415Z,13440
2016-07-05T07:49:28.311Z,14500
2016-07-05T07:50:28.443Z,15448
2016-07-05T07:51:28.401Z,14572
2016-07-05T07:52:28.257Z,15760
2016-07-05T07:53:28.262Z,16364
2016-07-05T07:54:28.308Z,14344
2016-07-05T07:55:28.301Z,13564
2016-07-05T07:56:28.365Z,14756
2016-07-05T07:57:28.444Z,14192
2016-07-05T07:58:28.371Z,15872
2016-07-05T07:59:28.377Z,16308
2016-07-05T08:00:28.405Z,15468
2016-07-05T08:01:28.455Z,15600
2016-07-05T08:02:29.151Z,13784
2016-07-05T08:03:28.264Z,14420
2016-07-05T08:04:28.407Z,15384
2016-07-05T08:05:28.337Z,16056
2016-07-05T08:06:28.333Z,16768
2016-07-05T08:07:28.621Z,17652
2016-07-05T08:08:28.298Z,16860
2016-07-05T08:09:28.531Z,15140
2016-07-05T08:10:28.296Z,16152
2016-07-05T08:11:28.418Z,15232
2016-07-05T08:12:28.449Z,15060
2016-07-05T08:13:28.318Z,11500
2016-07-05T08:14:28.335Z,11704
2016-07-05T08:15:28.324Z,14724
2016-07-05T08:16:28.379Z,14628
2016-07-05T08:17:28.348Z,15736
2016-07-05T08:18:28.374Z,16700
2016-07-05T08:19:28.320Z,16348
2016-07-05T08:20:28.360Z,13688
2016-07-05T08:21:28.409Z,13272
2016-07-05T08:22:28.360Z,14748
2016-07-05T08:23:28.541Z,16120
2016-07-05T08:24:29.823Z,16404
2016-07-05T08:25:28.976Z,14924
2016-07-05T08:26:28.442Z,15760
2016-07-05T08:27:28.324Z,17260
2016-07-05T08:28:28.326Z,19776
2016-07-05T08:29:28.763Z,23936
2016-07-05T08:30:28.653Z,27712
2016-07-05T08:31:28.407Z,29248
2016-07-05T08:32:28.472Z,27808
2016-07-05T08:33:28.347Z,25600
2016-07-05T08:34:28.666Z,27008
2016-07-05T08:35:28.590Z,26848
2016-07-05T08:36:28.364Z,22688
2016-07-05T08:37:28.364Z,16012
2016-07-05T08:38:28.592Z,20000
2016-07-05T08:39:28.430Z,13448
2016-07-05T08:40:29.158Z,13504
2016-07-05T08:41:28.499Z,8488
2016-07-05T08:42:28.320Z,7192
2016-07-05T08:43:28.629Z,5480
2016-07-05T08:44:28.504Z,4312
2016-07-05T08:45:28.338Z,4416
2016-07-05T08:46:28.537Z,8840
2016-07-05T08:47:28.373Z,7280
2016-07-05T08:48:28.412Z,7164
2016-07-05T08:49:28.448Z,6300
2016-07-05T08:50:28.465Z,7556
2016-07-05T08:51:28.384Z,12432
2016-07-05T08:52:28.507Z,12732
2016-07-05T08:53:28.435Z,12136
2016-07-05T08:54:28.556Z,11344
2016-07-05T08:55:28.409Z,12636
2016-07-05T08:56:28.329Z,15524
2016-07-05T08:57:28.314Z,15172
2016-07-05T08:58:29.326Z,15392
2016-07-05T08:59:28.347Z,17488
2016-07-05T09:00:28.371Z,20032
2016-07-05T09:01:28.466Z,21920
2016-07-05T09:02:28.356Z,24864
2016-07-05T09:03:28.594Z,23744
2016-07-05T09:04:28.421Z,27168
2016-07-05T09:05:29.365Z,26816
2016-07-05T09:06:28.439Z,20832
2016-07-05T09:07:28.325Z,16972
2016-07-05T09:08:28.401Z,17952
2016-07-05T09:09:28.358Z,16092
2016-07-05T09:10:28.409Z,19328
2016-07-05T09:11:28.389Z,23200
2016-07-05T09:12:28.364Z,24224
2016-07-05T09:13:28.411Z,21792
2016-07-05T09:14:28.436Z,19840
2016-07-05T09:15:28.416Z,22720
2016-07-05T09:16:28.433Z,23296
2016-07-05T09:17:28.410Z,25472
2016-07-05T09:18:28.374Z,22368
2016-07-05T09:19:28.483Z,23712
2016-07-05T09:20:28.329Z,23072
2016-07-05T09:21:28.453Z,23584
2016-07-05T09:22:28.381Z,20736
2016-07-05T09:23:28.360Z,26144
2016-07-05T09:24:28.485Z,25472
2016-07-05T09:25:28.362Z,22784
2016-07-05T09:26:29.345Z,24704
2016-07-05T09:27:28.506Z,25632
2016-07-05T09:28:28.528Z,17368
2016-07-05T09:29:29.035Z,11440
2016-07-05T09:30:28.452Z,11344
2016-07-05T09:31:28.466Z,15324
2016-07-05T09:32:28.485Z,12300
2016-07-05T09:33:28.519Z,12420
2016-07-05T09:34:28.342Z,16888
2016-07-05T09:35:28.468Z,17428
2016-07-05T09:36:28.438Z,14656
2016-07-05T09:37:28.503Z,13224
2016-07-05T09:38:28.391Z,10416
2016-07-05T09:39:28.501Z,14064
2016-07-05T09:40:28.385Z,14484
2016-07-05T09:41:28.376Z,18180
2016-07-05T09:42:28.983Z,21568
2016-07-05T09:43:28.367Z,24032
2016-07-05T09:44:28.354Z,21184
2016-07-05T09:45:28.353Z,22272
2016-07-05T09:46:28.345Z,25760
2016-07-05T09:47:28.411Z,26368
2016-07-05T09:48:28.375Z,26112
2016-07-05T09:49:28.499Z,26368
2016-07-05T09:50:28.707Z,26944
2016-07-05T09:51:28.495Z,26208
2016-07-05T09:52:28.385Z,25472
2016-07-05T09:53:28.511Z,23104
2016-07-05T09:54:28.369Z,19552
2016-07-05T09:55:28.379Z,14584
2016-07-05T09:56:29.143Z,18020
2016-07-05T09:57:28.439Z,15920
2016-07-05T09:58:28.541Z,13528
2016-07-05T09:59:28.413Z,16116
2016-07-05T10:00:28.429Z,13752
2016-07-05T10:01:28.468Z,13432
2016-07-05T10:02:28.550Z,13808
2016-07-05T10:03:29.034Z,14676
2016-07-05T10:04:29.045Z,17356
2016-07-05T10:05:28.410Z,14096
2016-07-05T10:06:28.481Z,15672
2016-07-05T10:07:28.456Z,18944
2016-07-05T10:08:28.547Z,18312
2016-07-05T10:09:28.594Z,12360
2016-07-05T10:10:28.501Z,10104
2016-07-05T10:11:28.393Z,10044
2016-07-05T10:12:28.412Z,12472
2016-07-05T10:13:28.468Z,10556
2016-07-05T10:14:28.474Z,13488
2016-07-05T10:15:28.648Z,16928
2016-07-05T10:16:28.494Z,21856
2016-07-05T10:17:28.566Z,16292
2016-07-05T10:18:28.559Z,16452
2016-07-05T10:19:28.417Z,14916
2016-07-05T10:20:28.615Z,12104
2016-07-05T10:21:28.422Z,11380
2016-07-05T10:22:28.503Z,10476
2016-07-05T10:23:28.420Z,12708
2016-07-05T10:24:28.445Z,17748
2016-07-05T10:25:28.442Z,25824
2016-07-05T10:26:28.441Z,27584
2016-07-05T10:27:28.410Z,24032
2016-07-05T10:28:28.596Z,24160
2016-07-05T10:29:28.408Z,24928
2016-07-05T10:30:28.564Z,24352
2016-07-05T10:31:28.460Z,24704
2016-07-05T10:32:28.500Z,25440
2016-07-05T10:33:28.537Z,23232
2016-07-05T10:34:28.430Z,20352
2016-07-05T10:35:28.571Z,17288
2016-07-05T10:36:28.711Z,17768
2016-07-05T10:37:28.478Z,14180
2016-07-05T10:38:28.470Z,11532
2016-07-05T10:39:28.755Z,9688
2016-07-05T10:40:28.672Z,8600
2016-07-05T10:41:29.108Z,8736
2016-07-05T10:42:28.510Z,8064
2016-07-05T10:43:28.510Z,9912
2016-07-05T10:44:28.469Z,10692
2016-07-05T10:45:28.533Z,11012
2016-07-05T10:46:28.500Z,10664
2016-07-05T10:47:28.461Z,9704
2016-07-05T10:48:28.469Z,8264
2016-07-05T10:49:28.399Z,8248
2016-07-05T10:50:28.483Z,8604
2016-07-05T10:51:28.676Z,11204
2016-07-05T10:52:28.476Z,9780
2016-07-05T10:53:28.511Z,11184
2016-07-05T10:54:28.554Z,13800
2016-07-05T10:55:28.455Z,13648
2016-07-05T10:56:28.495Z,15700
2016-07-05T10:57:28.451Z,16748
2016-07-05T10:58:28.566Z,19456
2016-07-05T10:59:28.467Z,21312
2016-07-05T11:00:28.445Z,22432
2016-07-05T11:01:28.446Z,26080
2016-07-05T11:02:28.423Z,26816
2016-07-05T11:03:28.460Z,26848
2016-07-05T11:04:28.446Z,23936
2016-07-05T11:05:28.504Z,20992
2016-07-05T11:06:28.527Z,19840
2016-07-05T11:07:28.550Z,17260
2016-07-05T11:08:28.511Z,18428
2016-07-05T11:09:28.531Z,18444
2016-07-05T11:10:29.159Z,14428
2016-07-05T11:11:29.512Z,13920
2016-07-05T11:12:28.554Z,14324
2016-07-05T11:13:28.535Z,12652
2016-07-05T11:14:28.515Z,10240
2016-07-05T11:15:28.518Z,9880
2016-07-05T11:16:28.499Z,10704
2016-07-05T11:17:28.651Z,9812
2016-07-05T11:18:28.500Z,7480
2016-07-05T11:19:28.501Z,7484
2016-07-05T11:20:28.513Z,6928
2016-07-05T11:21:28.568Z,6524
2016-07-05T11:22:28.568Z,8248
2016-07-05T11:23:28.493Z,6684
2016-07-05T11:24:28.516Z,7020
2016-07-05T11:25:28.529Z,5964
2016-07-05T11:26:28.500Z,6552
2016-07-05T11:27:28.527Z,6684
2016-07-05T11:28:28.502Z,7004
2016-07-05T11:29:29.132Z,8512
2016-07-05T11:30:28.736Z,8596
2016-07-05T11:31:28.564Z,9128
2016-07-05T11:32:28.511Z,10668
2016-07-05T11:33:28.563Z,12792
2016-07-05T11:34:28.489Z,12624
2016-07-05T11:35:28.515Z,13264
2016-07-05T11:36:28.562Z,11596
2016-07-05T11:37:28.440Z,9736
2016-07-05T11:38:28.476Z,9596
2016-07-05T11:39:29.860Z,6984
2016-07-05T11:40:28.470Z,7744
2016-07-05T11:41:28.483Z,8660
2016-07-05T11:42:28.450Z,8896
2016-07-05T11:43:28.537Z,6288
2016-07-05T11:44:28.475Z,5424
2016-07-05T11:45:28.483Z,9412
2016-07-05T11:46:28.477Z,12240
2016-07-05T11:47:28.544Z,11588
2016-07-05T11:48:28.542Z,12720
2016-07-05T11:49:28.482Z,13248
2016-07-05T11:50:28.510Z,11940
2016-07-05T11:51:28.957Z,8920
2016-07-05T11:52:28.536Z,9092
2016-07-05T11:53:28.567Z,12652
2016-07-05T11:54:28.504Z,13156
2016-07-05T11:55:28.568Z,14508
2016-07-05T11:56:28.559Z,18180
2016-07-05T11:57:28.523Z,20256
2016-07-05T11:58:28.614Z,19040
2016-07-05T11:59:28.698Z,16880
2016-07-05T12:00:29.613Z,21184
2016-07-05T12:01:28.533Z,20192
2016-07-05T12:02:29.200Z,20832
2016-07-05T12:03:28.553Z,23680
2016-07-05T12:04:29.234Z,24576
2016-07-05T12:05:28.533Z,24256
2016-07-05T12:06:28.630Z,23488
2016-07-05T12:07:28.538Z,22976
2016-07-05T12:08:28.483Z,23808
2016-07-05T12:09:29.285Z,23648
2016-07-05T12:10:28.463Z,21344
2016-07-05T12:11:28.571Z,18408
2016-07-05T12:12:28.571Z,13024
2016-07-05T12:13:28.519Z,9100
2016-07-05T12:14:28.540Z,8064
2016-07-05T12:15:28.529Z,6704
2016-07-05T12:16:28.510Z,7012
2016-07-05T12:17:28.530Z,9476
2016-07-05T12:18:28.563Z,8772
2016-07-05T12:19:28.511Z,7568
2016-07-05T12:20:28.580Z,9748
2016-07-05T12:21:29.152Z,10420
2016-07-05T12:22:28.567Z,9720
2016-07-05T12:23:28.565Z,10488
2016-07-05T12:24:28.606Z,10396
2016-07-05T12:25:28.580Z,11940
2016-07-05T12:26:28.525Z,17012
2016-07-05T12:27:28.624Z,18880
2016-07-05T12:28:28.504Z,20640
2016-07-05T12:29:28.565Z,17208
2016-07-05T12:30:28.568Z,17508
2016-07-05T12:31:28.641Z,21024
2016-07-05T12:32:28.547Z,11048
2016-07-05T12:33:28.528Z,12668
2016-07-05T12:34:28.643Z,11632
2016-07-05T12:35:28.683Z,10508
2016-07-05T12:36:28.517Z,16276
2016-07-05T12:37:28.551Z,18880
2016-07-05T12:38:28.589Z,17740
2016-07-05T12:39:28.609Z,16956
2016-07-05T12:40:28.527Z,12920
2016-07-05T12:41:28.574Z,11680
2016-07-05T12:42:29.559Z,14832
2016-07-05T12:43:29.564Z,17276
2016-07-05T12:44:28.638Z,13632
2016-07-05T12:45:28.612Z,16272
2016-07-05T12:46:28.522Z,14320
2016-07-05T12:47:28.563Z,18208
2016-07-05T12:48:28.722Z,17844
2016-07-05T12:49:29.173Z,15464
2016-07-05T12:50:28.580Z,11252
2016-07-05T12:51:28.801Z,10432
2016-07-05T12:52:28.592Z,14632
2016-07-05T12:53:28.551Z,12268
2016-07-05T12:54:28.602Z,11112
2016-07-05T12:55:28.715Z,8040
2016-07-05T12:56:28.559Z,8112
2016-07-05T12:57:28.661Z,13008
2016-07-05T12:58:28.641Z,15180
2016-07-05T12:59:28.540Z,13456
2016-07-05T13:00:29.180Z,15944
2016-07-05T13:01:28.553Z,14900
2016-07-05T13:02:29.273Z,12372
2016-07-05T13:03:28.565Z,11616
2016-07-05T13:04:28.552Z,10304
2016-07-05T13:05:28.604Z,11412
2016-07-05T13:06:28.572Z,11856
2016-07-05T13:07:29.110Z,8984
2016-07-05T13:08:28.543Z,7276
2016-07-05T13:09:28.595Z,6248
2016-07-05T13:10:28.543Z,7532
2016-07-05T13:11:28.626Z,7484
2016-07-05T13:12:28.624Z,6048
2016-07-05T13:13:28.579Z,6420
2016-07-05T13:14:28.688Z,7532
2016-07-05T13:15:28.632Z,7944
2016-07-05T13:16:28.543Z,8912
2016-07-05T13:17:28.621Z,14848
2016-07-05T13:18:28.671Z,13092
2016-07-05T13:19:28.571Z,11852
2016-07-05T13:20:29.346Z,11484
2016-07-05T13:21:28.623Z,11872
2016-07-05T13:22:28.596Z,11340
2016-07-05T13:23:28.619Z,15308
2016-07-05T13:24:28.643Z,18480
2016-07-05T13:25:28.590Z,19456
2016-07-05T13:26:28.612Z,16752